Pagrindinis puslapis
METAR-TAF:

METAR-TAF

Oro uostai :

North Perry Airport

Hollywood, Florida, Jungtinės Amerikos Valstijos

platuma: 25-59-56N, ilguma: 080-14-28W, Aukštis: 2 m

Dabartinis oras

Ataskaita buvo paskelbta 38 minutes, ne 16:53 UTC
Vėjas 6 kt iš Vakarų/Pietvakarių
Temperatūra 31°C
Drėgmė 63%
Slėgis 1014 hPa
Matomumas: 16.1 km
Išsisklaidę debesys ne aukštis 6000 ft

METAR: KHWO 171653Z 25006KT 10SM SCT060 31/23 A2993 RMK AO2 SLP135 T03110233

Laikas: 13:31 (17:31 UTC)


TAF: trūkstamas

Orai ataskaitas ir orų prognozės (METAR, TAF).

turimą stotys yra geltonos ir raudonos taškus žemėlapyje.

Perkelti pele per norėdami pamatyti stoties vardą.

Tada spustelėkite, norėdami matyti oro stebėjimo ir prognozės.

Norėdami pakeisti žemėlapį: spustelėkite ant žalios mygtukų su juodo kryžiaus žemyn,; žalią mygtuką su brūkšneliu, jei norite nutolinti; arba žalių rodyklių gretimoms žemėlapius.


METAR-TAF: